Time;durP1;ratioP1;P1;durP2;ratioP2;P2;SDS_P1;SDS_P2;PMS_P1;PMS_P2;Temp;Humidity;BMP_temperature;BMP_pressure;BME280_temperature;BME280_humidity;BME280_pressure;Samples;Min_cycle;Max_cycle;Signal;HPM_P1;HPM_P2
2021/01/10 00:00:26;;;;;;;87.40;40.30;;;1.20;99.90;;;;;;5044645;28;20048;-73
2021/01/10 00:02:53;;;;;;;92.68;40.72;;;1.10;99.90;;;;;;5047229;28;20052;-73
2021/01/10 00:05:25;;;;;;;83.38;40.15;;;1.10;99.90;;;;;;5045276;28;20057;-73
2021/01/10 00:07:52;;;;;;;77.57;35.55;;;1.10;99.90;;;;;;5042286;28;20149;-72
2021/01/10 00:10:19;;;;;;;70.82;35.67;;;1.10;99.90;;;;;;5026553;28;20584;-74
2021/01/10 00:12:46;;;;;;;67.70;36.60;;;1.00;99.90;;;;;;5027439;28;20044;-73
2021/01/10 00:15:15;;;;;;;75.00;36.72;;;1.10;99.90;;;;;;5045550;28;20057;-74
2021/01/10 00:17:46;;;;;;;80.90;38.17;;;1.20;99.90;;;;;;5042134;28;20049;-74
2021/01/10 00:20:14;;;;;;;82.18;36.25;;;1.20;99.90;;;;;;5033929;28;20601;-74
2021/01/10 00:22:41;;;;;;;74.93;39.17;;;1.20;99.90;;;;;;5044307;28;20052;-75
2021/01/10 00:25:10;;;;;;;73.13;37.30;;;1.20;99.90;;;;;;5012750;28;20193;-74
2021/01/10 00:27:39;;;;;;;79.65;36.53;;;1.10;99.90;;;;;;5013311;28;20507;-74
2021/01/10 00:30:07;;;;;;;68.25;36.05;;;1.20;99.90;;;;;;5044918;28;20049;-74
2021/01/10 00:32:34;;;;;;;68.47;35.53;;;1.20;99.90;;;;;;5045098;28;20053;-73
2021/01/10 00:35:02;;;;;;;78.43;36.78;;;1.20;99.90;;;;;;5029637;28;20061;-74
2021/01/10 00:37:28;;;;;;;74.43;35.20;;;1.20;99.90;;;;;;5024414;28;20080;-74
2021/01/10 00:39:55;;;;;;;72.93;38.28;;;1.10;99.90;;;;;;5017164;28;20055;-73
2021/01/10 00:42:21;;;;;;;86.85;42.00;;;1.10;99.90;;;;;;5046462;28;20040;-74
2021/01/10 00:44:48;;;;;;;85.72;43.72;;;1.10;99.90;;;;;;5048860;28;20517;-73
2021/01/10 00:47:19;;;;;;;102.30;47.58;;;1.20;99.90;;;;;;5028478;28;20732;-74
2021/01/10 00:49:47;;;;;;;93.32;43.65;;;1.20;99.90;;;;;;5032123;28;20533;-74
2021/01/10 00:52:14;;;;;;;79.90;40.47;;;1.10;99.90;;;;;;5047127;28;20040;-74
2021/01/10 00:54:43;;;;;;;72.70;38.22;;;1.10;99.90;;;;;;5065124;28;20044;-74
2021/01/10 00:57:10;;;;;;;77.07;38.55;;;1.20;99.90;;;;;;5048831;28;20122;-74
2021/01/10 00:59:39;;;;;;;86.68;39.55;;;1.10;99.90;;;;;;5064101;28;20056;-74
2021/01/10 01:02:05;;;;;;;77.78;40.67;;;1.10;99.90;;;;;;5035560;28;20073;-73
2021/01/10 01:04:33;;;;;;;78.75;39.40;;;1.10;99.90;;;;;;5025271;28;20049;-75
2021/01/10 01:07:01;;;;;;;72.13;36.90;;;1.10;99.90;;;;;;5026577;28;20401;-74
2021/01/10 01:09:28;;;;;;;63.15;33.58;;;1.20;99.90;;;;;;5028803;28;20049;-73
2021/01/10 01:11:55;;;;;;;76.88;37.75;;;1.10;99.90;;;;;;5035906;28;20519;-72
2021/01/10 01:14:21;;;;;;;63.30;35.35;;;1.10;99.90;;;;;;5035584;28;20080;-74
2021/01/10 01:16:48;;;;;;;60.65;34.08;;;1.20;99.90;;;;;;5055120;28;20106;-74
2021/01/10 01:19:16;;;;;;;70.13;35.97;;;1.10;99.90;;;;;;5060942;28;20056;-73
2021/01/10 01:21:42;;;;;;;67.30;34.72;;;1.10;99.90;;;;;;5047209;28;20051;-74
2021/01/10 01:24:09;;;;;;;69.93;35.58;;;1.10;99.90;;;;;;5031666;28;20469;-76
2021/01/10 01:26:35;;;;;;;57.03;32.65;;;1.10;99.90;;;;;;5064830;28;20075;-75
2021/01/10 01:29:02;;;;;;;63.15;34.47;;;1.10;99.90;;;;;;5044438;28;20064;-74
2021/01/10 01:31:32;;;;;;;67.47;37.10;;;1.10;99.90;;;;;;5040540;28;20068;-74
2021/01/10 01:34:01;;;;;;;68.10;36.15;;;1.10;99.90;;;;;;5022542;28;20072;-75
2021/01/10 01:36:27;;;;;;;66.05;33.83;;;1.10;99.90;;;;;;5039053;28;20546;-74
2021/01/10 01:38:56;;;;;;;73.72;37.85;;;1.00;99.90;;;;;;5057646;28;20072;-74
2021/01/10 01:41:26;;;;;;;63.63;34.72;;;1.10;99.90;;;;;;5064310;28;20047;-74
2021/01/10 01:43:54;;;;;;;66.53;34.67;;;1.10;99.90;;;;;;5065448;28;20060;-75
2021/01/10 01:46:28;;;;;;;65.07;35.33;;;1.10;99.90;;;;;;5065174;28;20136;-74
2021/01/10 01:48:59;;;;;;;71.57;36.45;;;1.10;99.90;;;;;;5052799;28;20071;-73
2021/01/10 01:51:26;;;;;;;60.58;33.58;;;1.10;99.90;;;;;;5051858;28;20052;-75
2021/01/10 01:53:53;;;;;;;68.88;35.88;;;1.10;99.90;;;;;;5043208;28;20480;-74
2021/01/10 01:56:19;;;;;;;67.40;34.83;;;1.10;99.90;;;;;;5027536;28;20480;-74
2021/01/10 01:59:07;;;;;;;72.13;34.28;;;1.10;99.90;;;;;;5043041;28;20077;-74
2021/01/10 02:01:36;;;;;;;66.90;35.03;;;1.10;99.90;;;;;;5024413;28;20045;-74
2021/01/10 02:04:26;;;;;;;67.60;34.78;;;1.00;99.90;;;;;;5042853;28;20143;-74
2021/01/10 02:06:52;;;;;;;70.60;35.95;;;1.10;99.90;;;;;;5020151;28;20045;-73
2021/01/10 02:09:20;;;;;;;64.25;34.00;;;1.10;99.90;;;;;;5027164;28;20057;-73
2021/01/10 02:11:52;;;;;;;66.75;34.80;;;1.20;99.90;;;;;;5023103;28;20470;-74
2021/01/10 02:14:25;;;;;;;65.93;33.28;;;1.20;99.90;;;;;;5033695;28;20617;-74
2021/01/10 02:16:53;;;;;;;63.42;32.30;;;1.10;99.90;;;;;;5011162;28;20053;-75
2021/01/10 02:19:37;;;;;;;67.97;34.47;;;1.20;99.90;;;;;;5026198;28;20045;-73
2021/01/10 02:22:05;;;;;;;57.90;31.77;;;1.20;99.90;;;;;;5024196;28;20045;-73
2021/01/10 02:24:34;;;;;;;59.95;30.70;;;1.20;99.90;;;;;;5044685;28;20535;-72
2021/01/10 02:27:04;;;;;;;62.42;33.47;;;1.10;99.90;;;;;;5056280;28;20064;-74
2021/01/10 02:29:32;;;;;;;69.28;37.08;;;1.10;99.90;;;;;;5044573;28;20169;-74
2021/01/10 02:32:01;;;;;;;69.45;33.17;;;1.20;99.90;;;;;;5046159;28;20823;-74
2021/01/10 02:34:28;;;;;;;62.75;33.22;;;1.30;99.90;;;;;;5044180;28;20080;-74
2021/01/10 02:37:08;;;;;;;65.78;33.53;;;1.40;99.90;;;;;;5050241;28;20073;-74
2021/01/10 02:39:53;;;;;;;64.25;34.58;;;1.40;99.90;;;;;;5045702;28;20466;-75
2021/01/10 02:42:36;;;;;;;64.75;35.88;;;1.30;99.90;;;;;;5023946;28;20044;-74
2021/01/10 02:45:17;;;;;;;73.00;34.80;;;1.30;99.90;;;;;;5042288;28;20136;-72
2021/01/10 02:47:44;;;;;;;59.55;32.90;;;1.30;99.90;;;;;;5043346;28;20045;-74
2021/01/10 02:50:17;;;;;;;67.57;35.22;;;1.30;99.90;;;;;;5028134;28;20066;-73
2021/01/10 02:52:46;;;;;;;67.35;34.15;;;1.30;99.90;;;;;;5059421;28;20080;-74
2021/01/10 02:55:13;;;;;;;79.50;35.88;;;1.30;99.90;;;;;;5045814;28;20076;-74
2021/01/10 02:57:44;;;;;;;60.83;32.30;;;1.30;99.90;;;;;;5064147;28;20128;-76
2021/01/10 03:00:13;;;;;;;62.28;34.20;;;1.30;99.90;;;;;;5047402;28;20047;-74
2021/01/10 03:02:40;;;;;;;69.85;37.08;;;1.30;99.90;;;;;;5061170;28;20068;-74
2021/01/10 03:05:11;;;;;;;63.38;38.10;;;1.20;99.90;;;;;;5062976;28;20075;-74
2021/01/10 03:07:41;;;;;;;69.03;36.92;;;1.20;99.90;;;;;;5062189;28;20457;-75
2021/01/10 03:10:11;;;;;;;69.00;36.38;;;1.20;99.90;;;;;;5045465;28;20619;-74
2021/01/10 03:12:37;;;;;;;74.05;35.22;;;1.20;99.90;;;;;;5057976;28;20048;-75
2021/01/10 03:15:06;;;;;;;75.88;37.10;;;1.20;99.90;;;;;;5062942;28;20052;-75
2021/01/10 03:17:46;;;;;;;74.88;37.05;;;1.30;99.90;;;;;;5078398;28;20053;-76
2021/01/10 03:20:18;;;;;;;60.33;36.22;;;1.30;99.90;;;;;;5048279;28;20041;-75
2021/01/10 03:22:49;;;;;;;64.20;35.42;;;1.30;99.90;;;;;;5049047;28;20045;-75
2021/01/10 03:25:22;;;;;;;75.70;35.75;;;1.30;99.90;;;;;;5048883;28;20044;-74
2021/01/10 03:27:48;;;;;;;67.38;35.22;;;1.40;99.90;;;;;;5066201;28;20048;-74
2021/01/10 03:30:17;;;;;;;63.95;34.00;;;1.40;99.90;;;;;;5063386;28;20691;-74
2021/01/10 03:32:44;;;;;;;67.20;35.35;;;1.30;99.90;;;;;;5031435;28;20125;-74
2021/01/10 03:35:18;;;;;;;68.15;36.55;;;1.30;99.90;;;;;;5063279;28;20039;-75
2021/01/10 03:37:48;;;;;;;71.97;37.13;;;1.30;99.90;;;;;;5065328;28;20040;-74
2021/01/10 03:40:16;;;;;;;68.70;34.85;;;1.20;99.90;;;;;;5047548;28;20143;-74
2021/01/10 03:42:43;;;;;;;70.55;36.08;;;1.30;99.90;;;;;;5064404;28;20044;-75
2021/01/10 03:45:11;;;;;;;65.40;35.13;;;1.30;99.90;;;;;;5066807;28;20044;-74
2021/01/10 03:47:37;;;;;;;71.30;35.65;;;1.30;99.90;;;;;;5049141;28;20044;-74
2021/01/10 03:50:05;;;;;;;71.88;35.22;;;1.30;99.90;;;;;;5048958;28;20845;-73
2021/01/10 03:52:32;;;;;;;65.50;34.38;;;1.30;99.90;;;;;;5047383;28;20048;-74
2021/01/10 03:54:58;;;;;;;64.35;34.47;;;1.30;99.90;;;;;;5065007;28;20064;-73
2021/01/10 03:57:25;;;;;;;67.18;35.80;;;1.30;99.90;;;;;;5064892;28;20044;-74
2021/01/10 03:59:54;;;;;;;73.50;34.95;;;1.30;99.90;;;;;;5066776;28;20500;-75
2021/01/10 04:02:21;;;;;;;66.40;36.38;;;1.30;99.90;;;;;;5063836;28;20048;-75
2021/01/10 04:04:47;;;;;;;70.90;37.80;;;1.30;99.90;;;;;;5048865;28;20045;-75
2021/01/10 04:07:15;;;;;;;63.85;35.40;;;1.30;99.90;;;;;;5060053;28;20047;-74
2021/01/10 04:09:41;;;;;;;63.67;34.22;;;1.30;99.90;;;;;;5065561;28;20061;-73
2021/01/10 04:12:08;;;;;;;66.60;35.25;;;1.30;99.90;;;;;;5063608;28;20078;-75
2021/01/10 04:14:35;;;;;;;63.72;35.38;;;1.30;99.90;;;;;;5063860;28;20051;-73
2021/01/10 04:17:01;;;;;;;69.53;34.53;;;1.20;99.90;;;;;;5064439;28;20047;-74
2021/01/10 04:19:28;;;;;;;70.35;35.00;;;1.20;99.90;;;;;;5031802;28;20044;-73
2021/01/10 04:21:54;;;;;;;70.63;35.80;;;1.10;99.90;;;;;;5062743;28;20063;-74
2021/01/10 04:24:21;;;;;;;67.55;33.83;;;1.10;99.90;;;;;;5065170;28;20052;-74
2021/01/10 04:26:49;;;;;;;78.90;36.60;;;1.20;99.90;;;;;;5064353;28;20094;-74
2021/01/10 04:29:19;;;;;;;73.05;34.75;;;1.20;99.90;;;;;;5050597;28;20553;-73
2021/01/10 04:31:50;;;;;;;75.25;35.50;;;1.30;99.90;;;;;;5045980;28;20075;-74
2021/01/10 04:34:17;;;;;;;83.78;37.90;;;1.20;99.90;;;;;;5064483;28;20149;-74
2021/01/10 04:36:44;;;;;;;76.60;36.17;;;1.30;99.90;;;;;;5030721;28;20048;-74
2021/01/10 04:39:14;;;;;;;90.60;40.25;;;1.40;99.90;;;;;;5065207;28;20044;-74
2021/01/10 04:41:42;;;;;;;79.28;37.75;;;1.50;99.90;;;;;;5062238;28;20114;-75
2021/01/10 04:44:09;;;;;;;93.35;38.95;;;1.50;99.90;;;;;;5031739;28;20036;-73
2021/01/10 04:46:37;;;;;;;87.68;39.50;;;1.40;99.90;;;;;;5072620;28;20123;-74
2021/01/10 04:49:05;;;;;;;97.78;38.47;;;1.40;99.90;;;;;;5031110;28;20064;-74
2021/01/10 04:51:34;;;;;;;100.22;39.38;;;1.30;99.90;;;;;;5046513;28;20447;-74
2021/01/10 04:54:02;;;;;;;100.95;41.72;;;1.30;99.90;;;;;;5063781;28;20718;-75
2021/01/10 04:56:30;;;;;;;104.80;39.92;;;1.30;99.90;;;;;;5065840;28;20524;-73
2021/01/10 04:59:01;;;;;;;117.93;41.70;;;1.30;99.90;;;;;;5050326;28;20055;-76
2021/01/10 05:01:33;;;;;;;125.75;42.22;;;1.30;99.90;;;;;;5045279;28;20051;-76
2021/01/10 05:04:02;;;;;;;117.40;42.63;;;1.40;99.90;;;;;;5047632;28;20052;-73
2021/01/10 05:06:33;;;;;;;121.63;44.55;;;1.50;99.90;;;;;;5027942;28;20059;-74
2021/01/10 05:09:03;;;;;;;118.85;43.72;;;1.40;99.90;;;;;;5032345;28;20062;-75
2021/01/10 05:11:30;;;;;;;114.05;43.47;;;1.40;99.90;;;;;;5063380;28;20096;-75
2021/01/10 05:13:56;;;;;;;129.55;46.70;;;1.30;99.90;;;;;;5063837;28;20123;-75
2021/01/10 05:16:23;;;;;;;101.65;41.58;;;1.30;99.90;;;;;;5063386;28;20051;-74
2021/01/10 05:18:51;;;;;;;117.22;42.28;;;1.30;99.90;;;;;;5064649;28;20048;-75
2021/01/10 05:21:19;;;;;;;112.65;44.03;;;1.20;99.90;;;;;;5061975;28;20556;-75
2021/01/10 05:23:55;;;;;;;112.43;42.92;;;1.30;99.90;;;;;;5047177;28;20075;-75
2021/01/10 05:26:22;;;;;;;94.72;43.40;;;1.30;99.90;;;;;;5046864;28;20159;-74
2021/01/10 05:28:53;;;;;;;102.97;41.75;;;1.30;99.90;;;;;;5065553;28;20127;-74
2021/01/10 05:31:33;;;;;;;120.75;47.63;;;1.30;99.90;;;;;;5063833;28;20044;-73
2021/01/10 05:34:00;;;;;;;109.80;43.20;;;1.30;99.90;;;;;;5062703;28;20136;-74
2021/01/10 05:36:32;;;;;;;132.88;48.08;;;1.30;99.90;;;;;;5062161;28;20094;-75
2021/01/10 05:39:14;;;;;;;128.02;45.13;;;1.20;99.90;;;;;;5047728;28;20402;-74
2021/01/10 05:42:02;;;;;;;137.35;44.78;;;1.20;99.90;;;;;;5063345;28;20049;-75
2021/01/10 05:44:38;;;;;;;145.90;46.88;;;1.30;99.90;;;;;;5049977;28;20040;-75
2021/01/10 05:47:07;;;;;;;167.70;47.75;;;1.20;99.90;;;;;;5067425;28;20089;-73
2021/01/10 05:49:34;;;;;;;173.35;52.00;;;1.20;99.90;;;;;;5063401;28;20062;-75
2021/01/10 05:52:10;;;;;;;172.77;53.33;;;1.20;99.90;;;;;;5041893;28;20055;-74
2021/01/10 05:54:40;;;;;;;221.55;54.38;;;1.30;99.90;;;;;;5044800;28;20182;-75
2021/01/10 05:57:08;;;;;;;216.70;56.97;;;1.30;99.90;;;;;;5009693;28;20049;-76
2021/01/10 05:59:49;;;;;;;246.57;60.63;;;1.30;99.90;;;;;;5038228;28;20045;-73
2021/01/10 06:02:31;;;;;;;342.05;68.13;;;1.40;99.90;;;;;;5057076;28;20063;-74
2021/01/10 06:05:11;;;;;;;317.95;67.90;;;1.30;99.90;;;;;;5063796;28;20044;-74
2021/01/10 06:07:39;;;;;;;443.35;81.47;;;1.40;99.90;;;;;;5006258;28;20115;-74
2021/01/10 06:10:07;;;;;;;361.70;71.10;;;1.40;99.90;;;;;;5040670;28;20158;-72
2021/01/10 06:12:34;;;;;;;569.08;103.65;;;1.50;99.90;;;;;;5060049;28;20257;-73
2021/01/10 06:15:15;;;;;;;434.90;83.32;;;1.50;99.90;;;;;;5029095;28;20048;-74
2021/01/10 06:17:45;;;;;;;331.02;74.30;;;1.40;99.90;;;;;;5038439;28;20052;-75
2021/01/10 06:20:28;;;;;;;414.13;76.72;;;1.40;99.90;;;;;;5032610;28;20055;-75
2021/01/10 06:23:04;;;;;;;393.52;73.82;;;1.40;99.90;;;;;;5041932;28;20044;-75
2021/01/10 06:25:34;;;;;;;423.20;79.18;;;1.40;99.90;;;;;;5026609;28;20132;-75
2021/01/10 06:28:02;;;;;;;393.55;75.53;;;1.40;99.90;;;;;;5039371;28;20453;-75
2021/01/10 06:30:31;;;;;;;361.50;70.93;;;1.40;99.90;;;;;;5062292;28;20036;-75
2021/01/10 06:33:09;;;;;;;419.48;76.07;;;1.40;99.90;;;;;;5029014;28;20722;-74
2021/01/10 06:35:40;;;;;;;454.50;89.15;;;1.40;99.90;;;;;;5044574;28;20044;-74
2021/01/10 06:38:09;;;;;;;481.20;89.57;;;1.40;99.90;;;;;;5059181;28;20073;-74
2021/01/10 06:40:38;;;;;;;423.95;78.18;;;1.40;99.90;;;;;;5064328;28;20051;-75
2021/01/10 06:43:06;;;;;;;431.83;88.53;;;1.40;99.90;;;;;;5045730;28;20048;-74
2021/01/10 06:45:39;;;;;;;391.05;77.82;;;1.40;99.90;;;;;;5071779;28;20040;-75
2021/01/10 06:48:07;;;;;;;469.05;85.75;;;1.30;99.90;;;;;;5046822;28;20056;-75
2021/01/10 06:50:35;;;;;;;459.23;93.80;;;1.30;99.90;;;;;;5026073;28;20118;-75
2021/01/10 06:53:11;;;;;;;304.35;70.53;;;1.40;99.90;;;;;;5026590;28;20041;-75
2021/01/10 06:55:39;;;;;;;330.48;73.47;;;1.40;99.90;;;;;;5047901;28;20098;-76
2021/01/10 06:58:09;;;;;;;293.50;64.82;;;1.30;99.90;;;;;;5024573;28;20059;-75
2021/01/10 07:00:58;;;;;;;221.82;53.38;;;1.30;99.90;;;;;;5025840;28;20045;-75
2021/01/10 07:03:26;;;;;;;251.00;58.80;;;1.30;99.90;;;;;;5029612;28;20049;-75
2021/01/10 07:05:56;;;;;;;221.00;56.28;;;1.30;99.90;;;;;;5042233;28;20167;-74
2021/01/10 07:08:37;;;;;;;195.85;48.10;;;1.20;99.90;;;;;;5046268;28;20124;-74
2021/01/10 07:11:22;;;;;;;137.00;43.25;;;1.30;99.90;;;;;;5049485;28;20056;-74
2021/01/10 07:13:50;;;;;;;130.75;43.97;;;1.30;99.90;;;;;;5050024;28;20040;-75
2021/01/10 07:16:18;;;;;;;120.97;39.55;;;1.20;99.90;;;;;;5044695;28;20116;-74
2021/01/10 07:18:52;;;;;;;112.18;38.15;;;1.20;99.90;;;;;;5028900;28;20138;-74
2021/01/10 07:21:47;;;;;;;107.30;35.00;;;1.20;99.90;;;;;;5045087;28;20065;-76
2021/01/10 07:24:13;;;;;;;112.03;39.13;;;1.20;99.90;;;;;;5046107;28;20084;-75
2021/01/10 07:26:41;;;;;;;108.20;40.13;;;1.10;99.90;;;;;;5059620;28;20052;-74
2021/01/10 07:29:43;;;;;;;116.47;36.92;;;1.10;99.90;;;;;;5065023;28;20080;-74
2021/01/10 07:32:12;;;;;;;119.72;40.03;;;1.10;99.90;;;;;;5063125;28;20045;-75
2021/01/10 07:34:45;;;;;;;150.88;63.67;;;1.10;99.90;;;;;;5065624;28;20131;-76
2021/01/10 07:37:24;;;;;;;144.30;59.58;;;1.10;99.90;;;;;;5030242;28;20052;-75
2021/01/10 07:39:56;;;;;;;151.93;59.85;;;1.10;99.90;;;;;;5047248;28;20057;-75
2021/01/10 07:42:27;;;;;;;115.65;40.17;;;1.10;99.90;;;;;;5048547;28;20051;-74
2021/01/10 07:45:00;;;;;;;128.73;43.80;;;1.10;99.90;;;;;;5040060;28;20043;-74
2021/01/10 07:47:33;;;;;;;123.55;38.42;;;1.10;99.90;;;;;;5049069;28;20135;-75
2021/01/10 07:50:01;;;;;;;132.35;41.58;;;1.10;99.90;;;;;;5065305;28;20076;-75
2021/01/10 07:52:45;;;;;;;158.73;43.20;;;1.10;99.90;;;;;;5031104;28;20106;-75
2021/01/10 07:55:12;;;;;;;180.70;44.17;;;1.10;99.90;;;;;;5066954;28;20052;-75
2021/01/10 07:57:38;;;;;;;167.20;45.28;;;1.10;99.90;;;;;;5066874;28;20391;-74
2021/01/10 08:00:24;;;;;;;165.13;47.08;;;1.10;99.90;;;;;;5064350;28;20078;-74
2021/01/10 08:03:04;;;;;;;171.98;45.70;;;1.20;99.90;;;;;;5048269;28;20059;-74
2021/01/10 08:05:41;;;;;;;168.65;44.20;;;1.10;99.90;;;;;;5043873;28;20111;-75
2021/01/10 08:08:14;;;;;;;154.43;44.42;;;1.30;99.90;;;;;;5044500;28;20083;-74
2021/01/10 08:10:47;;;;;;;135.80;44.97;;;1.40;99.90;;;;;;5045438;28;20072;-77
2021/01/10 08:13:26;;;;;;;142.20;46.97;;;1.60;99.90;;;;;;5044435;28;20702;-74
2021/01/10 08:15:52;;;;;;;130.50;41.97;;;1.70;99.90;;;;;;5028139;28;20041;-75
2021/01/10 08:18:23;;;;;;;136.02;44.03;;;1.70;99.90;;;;;;5045854;28;20132;-74
2021/01/10 08:20:54;;;;;;;135.05;47.00;;;1.70;99.90;;;;;;5010123;28;20037;-74
2021/01/10 08:23:22;;;;;;;114.53;41.13;;;1.60;99.90;;;;;;5047098;28;20499;-75
2021/01/10 08:25:49;;;;;;;133.40;45.90;;;1.70;99.90;;;;;;5028790;28;20121;-74
2021/01/10 08:28:19;;;;;;;145.00;46.97;;;1.60;99.90;;;;;;5029658;28;20103;-73
2021/01/10 08:30:46;;;;;;;129.95;44.72;;;1.60;99.90;;;;;;5029196;28;20417;-73
2021/01/10 08:33:19;;;;;;;124.07;43.53;;;1.60;99.90;;;;;;5026274;28;20058;-74
2021/01/10 08:35:46;;;;;;;134.88;44.28;;;1.60;99.90;;;;;;5043234;28;20048;-73
2021/01/10 08:38:13;;;;;;;120.65;40.75;;;1.60;99.90;;;;;;5045341;28;20259;-75
2021/01/10 08:40:40;;;;;;;115.63;41.05;;;1.70;99.90;;;;;;5051029;28;20068;-74
2021/01/10 08:43:07;;;;;;;135.43;43.78;;;1.80;99.90;;;;;;5045348;28;20114;-74
2021/01/10 08:45:34;;;;;;;93.07;36.08;;;2.00;99.90;;;;;;5044054;28;20051;-74
2021/01/10 08:48:05;;;;;;;105.05;38.85;;;1.90;99.90;;;;;;5045593;28;20056;-75
2021/01/10 08:50:41;;;;;;;92.15;35.45;;;1.80;99.90;;;;;;5027292;28;20057;-75
2021/01/10 08:53:08;;;;;;;101.18;36.70;;;1.80;99.90;;;;;;5026500;28;20053;-75
2021/01/10 08:55:39;;;;;;;110.57;38.92;;;1.80;99.90;;;;;;5049634;28;20058;-75
2021/01/10 08:58:08;;;;;;;82.75;34.40;;;1.80;99.90;;;;;;5065120;28;20138;-75
2021/01/10 09:00:38;;;;;;;73.25;34.60;;;1.90;99.90;;;;;;5043573;28;20083;-75
2021/01/10 09:03:15;;;;;;;66.65;31.00;;;1.90;99.90;;;;;;5043214;28;20644;-75
2021/01/10 09:05:42;;;;;;;76.43;31.65;;;2.00;99.90;;;;;;5043412;28;20049;-76
2021/01/10 09:08:24;;;;;;;68.57;34.22;;;2.00;99.90;;;;;;5026802;28;20056;-74
2021/01/10 09:11:04;;;;;;;63.60;31.67;;;2.10;99.90;;;;;;5038931;28;20053;-75
2021/01/10 09:13:33;;;;;;;72.63;33.13;;;2.10;99.90;;;;;;5058812;28;20049;-73
2021/01/10 09:16:00;;;;;;;63.22;29.10;;;2.00;99.90;;;;;;5040024;28;20411;-74
2021/01/10 09:18:31;;;;;;;71.10;30.20;;;1.90;99.90;;;;;;5061119;28;20079;-75
2021/01/10 09:21:04;;;;;;;74.68;31.67;;;1.90;99.90;;;;;;5046656;28;20048;-74
2021/01/10 09:23:31;;;;;;;67.63;31.75;;;1.90;99.90;;;;;;5049577;28;20083;-75
2021/01/10 09:25:57;;;;;;;70.15;29.45;;;1.80;99.90;;;;;;5049608;28;20115;-74
2021/01/10 09:28:25;;;;;;;69.15;31.38;;;1.80;99.90;;;;;;5042606;28;20052;-75
2021/01/10 09:30:53;;;;;;;65.22;29.58;;;1.80;99.90;;;;;;5031611;28;20132;-75
2021/01/10 09:33:31;;;;;;;76.23;30.60;;;1.90;99.90;;;;;;5046442;28;20134;-74
2021/01/10 09:36:00;;;;;;;61.72;30.45;;;1.80;99.90;;;;;;5059894;28;20044;-76
2021/01/10 09:38:29;;;;;;;66.53;29.40;;;1.90;99.90;;;;;;5057366;28;20225;-74
2021/01/10 09:41:15;;;;;;;60.65;28.70;;;2.00;99.90;;;;;;5051001;28;20040;-73
2021/01/10 09:43:50;;;;;;;65.75;29.50;;;2.00;99.90;;;;;;5027346;28;20109;-74
2021/01/10 09:46:37;;;;;;;60.60;29.17;;;2.00;99.90;;;;;;5043623;28;20107;-74
2021/01/10 09:49:04;;;;;;;60.58;29.75;;;2.00;99.90;;;;;;5060773;28;20445;-74
2021/01/10 09:51:40;;;;;;;64.05;29.95;;;2.00;99.90;;;;;;5037442;28;20045;-74
2021/01/10 09:54:19;;;;;;;63.70;30.02;;;2.00;99.90;;;;;;5044486;28;20068;-74
2021/01/10 09:57:00;;;;;;;79.88;34.65;;;2.00;99.90;;;;;;5027505;28;20045;-74
2021/01/10 09:59:41;;;;;;;58.97;30.60;;;2.00;99.90;;;;;;5043525;28;20488;-75
2021/01/10 10:02:19;;;;;;;64.13;32.45;;;2.10;99.90;;;;;;5039202;28;20053;-74
2021/01/10 10:04:48;;;;;;;78.60;33.40;;;2.20;99.90;;;;;;5027812;28;20098;-74
2021/01/10 10:07:29;;;;;;;80.03;35.60;;;2.30;99.90;;;;;;5043326;28;20053;-75
2021/01/10 10:09:55;;;;;;;75.47;33.50;;;2.20;99.90;;;;;;5043563;28;20422;-74
2021/01/10 10:12:23;;;;;;;80.90;35.70;;;2.30;99.90;;;;;;5024875;28;20077;-75
2021/01/10 10:14:55;;;;;;;82.57;34.75;;;2.30;99.90;;;;;;5044371;28;20077;-74
2021/01/10 10:17:29;;;;;;;74.90;32.22;;;2.30;99.90;;;;;;5044078;28;20051;-74
2021/01/10 10:19:57;;;;;;;78.82;34.53;;;2.40;99.90;;;;;;5033769;28;20060;-74
2021/01/10 10:22:24;;;;;;;72.65;31.20;;;2.50;99.90;;;;;;5040420;28;20045;-75
2021/01/10 10:24:52;;;;;;;70.72;32.58;;;2.50;99.90;;;;;;5027061;28;20144;-75
2021/01/10 10:27:19;;;;;;;73.22;31.35;;;2.50;99.90;;;;;;5027043;28;20064;-75
2021/01/10 10:29:46;;;;;;;73.07;31.20;;;2.40;99.90;;;;;;5027224;28;20063;-76
2021/01/10 10:32:12;;;;;;;72.43;31.70;;;2.40;99.90;;;;;;5043767;28;20068;-75
2021/01/10 10:34:39;;;;;;;74.00;33.25;;;2.30;99.90;;;;;;5046785;28;20067;-75
2021/01/10 10:37:07;;;;;;;83.93;35.65;;;2.20;99.90;;;;;;5030568;28;20430;-75
2021/01/10 10:39:35;;;;;;;78.53;34.13;;;2.10;99.90;;;;;;5033354;28;20060;-75
2021/01/10 10:42:03;;;;;;;73.25;32.90;;;2.10;99.90;;;;;;5044518;28;20068;-74
2021/01/10 10:44:30;;;;;;;65.65;33.47;;;2.20;99.90;;;;;;5026395;28;20257;-74
2021/01/10 10:46:57;;;;;;;64.85;33.55;;;2.20;99.90;;;;;;5042909;28;20037;-74
2021/01/10 10:49:24;;;;;;;64.72;30.70;;;2.40;99.90;;;;;;5017413;28;20532;-75
2021/01/10 10:51:50;;;;;;;63.72;30.33;;;2.30;99.90;;;;;;5039506;28;20046;-75
2021/01/10 10:54:17;;;;;;;60.65;34.38;;;2.40;99.90;;;;;;5025958;28;20143;-75
2021/01/10 10:56:43;;;;;;;122.25;59.67;;;2.40;99.90;;;;;;5056641;28;20059;-76
2021/01/10 10:59:09;;;;;;;65.35;34.15;;;2.50;99.90;;;;;;5046983;28;20819;-75
2021/01/10 11:01:40;;;;;;;61.90;31.35;;;2.60;99.90;;;;;;5031959;28;20076;-75
2021/01/10 11:04:07;;;;;;;56.80;32.45;;;2.70;99.90;;;;;;5006472;28;20061;-75
2021/01/10 11:06:35;;;;;;;46.33;27.45;;;2.70;99.90;;;;;;5009282;28;20061;-75
2021/01/10 11:09:05;;;;;;;52.13;29.52;;;2.80;99.90;;;;;;5026698;28;20049;-74
2021/01/10 11:11:43;;;;;;;56.28;31.73;;;2.80;99.90;;;;;;5026908;28;20041;-75
2021/01/10 11:14:11;;;;;;;61.75;32.33;;;2.70;99.90;;;;;;5042159;28;20243;-74
2021/01/10 11:16:39;;;;;;;52.42;30.50;;;2.60;99.90;;;;;;5038519;28;20040;-75
2021/01/10 11:19:07;;;;;;;52.83;31.92;;;2.60;99.90;;;;;;5063934;28;20052;-75
2021/01/10 11:21:35;;;;;;;49.70;28.20;;;2.60;99.90;;;;;;5046897;28;20048;-74
2021/01/10 11:24:03;;;;;;;56.15;32.33;;;2.70;99.90;;;;;;5063257;28;20573;-75
2021/01/10 11:26:29;;;;;;;52.22;29.65;;;2.70;99.90;;;;;;5064340;28;20060;-75
2021/01/10 11:28:57;;;;;;;44.13;29.10;;;2.70;99.90;;;;;;5043476;28;20083;-75
2021/01/10 11:31:24;;;;;;;46.60;28.40;;;2.70;99.90;;;;;;5037097;28;20293;-75
2021/01/10 11:33:52;;;;;;;45.25;27.75;;;2.60;99.90;;;;;;5025551;28;20107;-76
2021/01/10 11:36:19;;;;;;;57.28;30.45;;;2.80;99.90;;;;;;5055686;28;20056;-76
2021/01/10 11:38:50;;;;;;;47.45;30.05;;;3.00;99.90;;;;;;5067856;28;20055;-75
2021/01/10 11:41:19;;;;;;;40.85;27.70;;;3.00;99.90;;;;;;5066354;28;20068;-75
2021/01/10 11:43:47;;;;;;;49.45;28.65;;;3.00;99.90;;;;;;5049869;28;20053;-74
2021/01/10 11:46:13;;;;;;;40.08;27.88;;;3.00;99.90;;;;;;5049301;28;20045;-76
2021/01/10 11:48:43;;;;;;;55.15;30.48;;;2.90;99.90;;;;;;5066252;28;20046;-75
2021/01/10 11:51:11;;;;;;;42.75;28.80;;;3.00;99.90;;;;;;5038870;28;20045;-75
2021/01/10 11:53:39;;;;;;;43.95;30.08;;;3.10;99.90;;;;;;5045899;28;20463;-75
2021/01/10 11:56:06;;;;;;;48.92;30.25;;;3.30;99.90;;;;;;5029505;28;20132;-74
2021/01/10 11:58:33;;;;;;;43.13;29.52;;;3.30;99.90;;;;;;5046615;28;20044;-75
2021/01/10 12:01:00;;;;;;;44.53;29.45;;;3.40;99.90;;;;;;5049485;28;20121;-75
2021/01/10 12:03:27;;;;;;;45.83;31.80;;;3.50;99.90;;;;;;5064928;28;20041;-75
2021/01/10 12:05:53;;;;;;;42.50;29.20;;;3.30;99.90;;;;;;5061744;28;20045;-76
2021/01/10 12:08:22;;;;;;;43.08;29.15;;;3.40;99.90;;;;;;5065610;28;20041;-76
2021/01/10 12:10:52;;;;;;;41.08;27.83;;;3.40;99.90;;;;;;5063139;28;20556;-75
2021/01/10 12:13:19;;;;;;;43.03;29.85;;;3.30;99.90;;;;;;5065538;28;20052;-76
2021/01/10 12:15:46;;;;;;;43.72;29.17;;;3.20;99.90;;;;;;5048203;28;20068;-75
2021/01/10 12:18:14;;;;;;;47.08;32.33;;;3.10;99.90;;;;;;5051867;28;20047;-76
2021/01/10 12:20:41;;;;;;;48.25;29.92;;;3.20;99.90;;;;;;5065430;28;20905;-75
2021/01/10 12:23:08;;;;;;;38.88;28.23;;;3.10;99.90;;;;;;5064552;28;20142;-76
2021/01/10 12:25:34;;;;;;;37.97;30.60;;;3.10;99.90;;;;;;5049117;28;20110;-77
2021/01/10 12:28:01;;;;;;;41.92;29.27;;;3.10;99.90;;;;;;5051441;28;20052;-75
2021/01/10 12:30:28;;;;;;;43.92;31.08;;;3.20;99.90;;;;;;5050779;28;20044;-75
2021/01/10 12:32:58;;;;;;;40.47;29.05;;;3.40;99.90;;;;;;5063789;28;20079;-76
2021/01/10 12:35:24;;;;;;;36.05;27.77;;;3.20;99.90;;;;;;5043716;28;20122;-76
2021/01/10 12:37:51;;;;;;;40.53;30.10;;;3.00;99.90;;;;;;5000077;28;20045;-76
2021/01/10 12:40:18;;;;;;;50.67;31.98;;;3.00;99.90;;;;;;5044162;28;20048;-75
2021/01/10 12:42:47;;;;;;;52.58;33.65;;;2.90;99.90;;;;;;5028422;28;20106;-75
2021/01/10 12:45:15;;;;;;;46.80;32.58;;;2.80;99.90;;;;;;5045029;28;20049;-75
2021/01/10 12:47:42;;;;;;;43.28;31.30;;;2.80;99.90;;;;;;5028969;28;20053;-76